Edna, South Dakota
Current Conditions -  °F | °C
As of 10:53 PM on Friday 28 Nov 2014 (Local Time) from KPIR Reporting Station
Clear Clear  
Wind Chill: 22°   Ceiling: Unl
Heat Index: 30°   Visibility: 10mi
Dew Point: 26°   Wind: 8mph
Humidity: 85%   Direction: 130°SE
Pressure: 29.46"   Gusts: NA
Location:  43.909°N, 100.128°W
Report Text: KPIR 290453Z AUTO 13007KT 10SM CLR M01/M03 A2946 RMK AO2 SLP992 T10111033
Loading
Personal Weather Stations






























Interactive Weather Map New forecast layout! Learn more

10-Day Weather Forecast

Advertisements
Track Severe Weather on mobile